createdAt,value
2018-06-11T00:00:37.757Z,19.91
2018-06-11T00:03:06.786Z,19.89
2018-06-11T00:05:35.776Z,19.87
2018-06-11T00:08:04.781Z,19.86
2018-06-11T00:10:34.013Z,19.86
2018-06-11T00:13:03.012Z,19.85
2018-06-11T00:15:32.016Z,19.80
2018-06-11T00:18:01.017Z,19.77
2018-06-11T00:20:29.951Z,19.77
2018-06-11T00:22:59.034Z,19.72
2018-06-11T00:25:27.982Z,19.67
2018-06-11T00:27:56.967Z,19.61
2018-06-11T00:30:25.957Z,19.59
2018-06-11T00:32:55.127Z,19.53
2018-06-11T00:35:24.084Z,19.46
2018-06-11T00:37:53.028Z,19.42
2018-06-11T00:40:22.089Z,19.39
2018-06-11T00:42:51.031Z,19.37
2018-06-11T00:45:20.030Z,19.29
2018-06-11T00:47:48.976Z,19.21
2018-06-11T00:50:17.972Z,19.20
2018-06-11T00:52:46.980Z,19.18
2018-06-11T00:55:15.969Z,19.15
2018-06-11T00:57:44.970Z,19.11
2018-06-11T01:00:13.937Z,19.08
2018-06-11T01:02:42.888Z,19.05
2018-06-11T01:05:11.881Z,19.04
2018-06-11T01:07:40.903Z,19.01
2018-06-11T01:10:10.018Z,18.98
2018-06-11T01:12:38.987Z,18.94
2018-06-11T01:15:08.873Z,18.91
2018-06-11T01:17:37.960Z,18.87
2018-06-11T01:20:07.021Z,18.83
2018-06-11T01:22:36.028Z,18.80
2018-06-11T01:25:04.982Z,18.79
2018-06-11T01:27:33.947Z,18.75
2018-06-11T01:30:03.004Z,18.73
2018-06-11T01:32:31.952Z,18.73
2018-06-11T01:35:00.955Z,18.69
2018-06-11T01:37:30.023Z,18.68
2018-06-11T01:39:59.080Z,18.65
2018-06-11T01:42:28.080Z,18.65
2018-06-11T01:44:57.127Z,18.65
2018-06-11T01:47:26.262Z,18.64
2018-06-11T01:49:55.280Z,18.63
2018-06-11T01:52:24.259Z,18.54
2018-06-11T01:54:53.256Z,18.56
2018-06-11T01:57:22.240Z,18.50
2018-06-11T01:59:51.313Z,18.48
2018-06-11T02:02:20.264Z,18.46
2018-06-11T02:04:49.242Z,18.39
2018-06-11T02:07:18.329Z,18.34
2018-06-11T02:09:47.308Z,18.23
2018-06-11T02:12:16.244Z,18.17
2018-06-11T02:14:45.281Z,18.06
2018-06-11T02:17:14.231Z,17.92
2018-06-11T02:19:49.668Z,17.81
2018-06-11T02:22:18.713Z,17.72
2018-06-11T02:24:47.658Z,17.66
2018-06-11T02:27:16.592Z,17.60
2018-06-11T02:29:45.576Z,17.52
2018-06-11T02:32:14.652Z,17.47
2018-06-11T02:34:43.609Z,17.42
2018-06-11T02:37:12.656Z,17.40
2018-06-11T02:39:41.692Z,17.41
2018-06-11T02:42:10.644Z,17.44
2018-06-11T02:44:39.681Z,17.50
2018-06-11T02:47:08.677Z,17.53
2018-06-11T02:49:37.737Z,17.65
2018-06-11T02:52:06.776Z,17.73
2018-06-11T02:54:35.762Z,17.82
2018-06-11T02:57:04.829Z,17.89
2018-06-11T02:59:33.839Z,17.95
2018-06-11T03:02:02.855Z,18.02
2018-06-11T03:04:31.792Z,18.14
2018-06-11T03:07:00.804Z,18.25
2018-06-11T03:09:29.793Z,18.37
2018-06-11T03:11:58.732Z,18.49
2018-06-11T03:14:27.736Z,18.63
2018-06-11T03:16:56.798Z,18.78
2018-06-11T03:19:25.803Z,18.89
2018-06-11T03:21:54.929Z,19.06
2018-06-11T03:24:23.923Z,19.18
2018-06-11T03:26:52.919Z,19.31
2018-06-11T03:29:21.978Z,19.38
2018-06-11T03:31:50.924Z,19.48
2018-06-11T03:34:19.980Z,19.64
2018-06-11T03:36:49.021Z,19.80
2018-06-11T03:39:18.063Z,19.99
2018-06-11T03:41:46.996Z,20.22
2018-06-11T03:44:15.919Z,20.38
2018-06-11T03:46:44.904Z,20.94
2018-06-11T03:49:13.941Z,21.99
2018-06-11T03:51:42.895Z,22.48
2018-06-11T03:54:11.844Z,22.62
2018-06-11T03:56:40.784Z,23.23
2018-06-11T03:59:09.856Z,24.32
2018-06-11T04:01:38.832Z,24.65
2018-06-11T04:04:07.840Z,25.10
2018-06-11T04:06:36.953Z,25.89
2018-06-11T04:09:08.092Z,26.84
2018-06-11T04:11:37.265Z,27.93
2018-06-11T04:14:06.263Z,28.81
2018-06-11T04:16:35.229Z,29.11
2018-06-11T04:19:04.222Z,29.86
2018-06-11T04:21:33.217Z,30.34
2018-06-11T04:24:02.209Z,30.94
2018-06-11T04:26:31.208Z,31.01
2018-06-11T04:29:00.152Z,31.46
2018-06-11T04:31:29.172Z,31.95
2018-06-11T04:33:58.193Z,32.24
2018-06-11T04:36:27.276Z,32.69
2018-06-11T04:38:56.252Z,33.21
2018-06-11T04:41:25.253Z,33.72
2018-06-11T04:43:54.305Z,33.76
2018-06-11T04:46:23.301Z,33.88
2018-06-11T04:48:52.339Z,33.96
2018-06-11T04:51:36.146Z,34.17
2018-06-11T04:54:05.170Z,34.65
2018-06-11T04:56:34.197Z,34.75
2018-06-11T04:59:03.192Z,34.39
2018-06-11T05:01:32.285Z,34.77
2018-06-11T05:04:01.246Z,35.61
2018-06-11T05:06:30.260Z,36.22
2018-06-11T05:08:59.206Z,36.09
2018-06-11T05:11:28.209Z,36.36
2018-06-11T05:13:57.185Z,36.97
2018-06-11T05:16:26.189Z,37.35
2018-06-11T05:18:55.306Z,37.59
2018-06-11T05:21:24.389Z,37.80
2018-06-11T05:23:53.343Z,38.33
2018-06-11T05:26:22.364Z,38.47
2018-06-11T05:28:51.398Z,38.71
2018-06-11T05:31:20.502Z,39.10
2018-06-11T05:33:49.541Z,39.83
2018-06-11T05:36:18.529Z,40.18
2018-06-11T05:38:47.525Z,40.00
2018-06-11T05:41:16.596Z,40.16
2018-06-11T05:43:45.607Z,40.24
2018-06-11T05:46:14.574Z,39.83
2018-06-11T05:48:43.597Z,39.65
2018-06-11T05:51:12.637Z,39.21
2018-06-11T05:53:41.605Z,39.17
2018-06-11T05:56:10.608Z,39.62
2018-06-11T05:58:39.553Z,39.59
2018-06-11T06:01:08.638Z,40.17
2018-06-11T06:03:37.604Z,40.58
2018-06-11T06:06:06.561Z,40.94
2018-06-11T06:08:35.583Z,41.12
2018-06-11T06:11:04.545Z,40.83
2018-06-11T06:13:33.496Z,40.99
2018-06-11T06:16:02.471Z,40.31
2018-06-11T06:18:31.421Z,40.17
2018-06-11T06:21:00.545Z,40.31
2018-06-11T06:23:29.569Z,40.53
2018-06-11T06:25:58.551Z,40.32
2018-06-11T06:28:27.558Z,40.59
2018-06-11T06:30:56.561Z,40.56
2018-06-11T06:33:25.581Z,40.11
2018-06-11T06:35:54.610Z,39.78
2018-06-11T06:38:23.622Z,39.47
2018-06-11T06:40:52.629Z,39.42
2018-06-11T06:43:21.632Z,39.47
2018-06-11T06:45:50.674Z,39.40
2018-06-11T06:48:19.684Z,39.06
2018-06-11T06:50:48.721Z,38.60
2018-06-11T06:53:17.783Z,38.80
2018-06-11T06:55:46.773Z,38.85
2018-06-11T06:58:15.783Z,38.91
2018-06-11T07:00:44.797Z,38.55
2018-06-11T07:03:13.781Z,37.77
2018-06-11T07:05:42.741Z,37.89
2018-06-11T07:08:11.734Z,38.62
2018-06-11T07:10:40.754Z,38.35
2018-06-11T07:13:09.933Z,39.17
2018-06-11T07:15:38.936Z,38.91
2018-06-11T07:18:07.949Z,38.62
2018-06-11T07:20:37.018Z,37.92
2018-06-11T07:23:06.024Z,38.47
2018-06-11T07:25:35.061Z,38.78
2018-06-11T07:28:04.063Z,38.60
2018-06-11T07:30:33.065Z,38.20
2018-06-11T07:33:02.061Z,37.48
2018-06-11T07:35:31.048Z,37.87
2018-06-11T07:38:00.026Z,38.34
2018-06-11T07:40:29.048Z,38.93
2018-06-11T07:42:58.058Z,38.49
2018-06-11T07:45:27.109Z,38.16
2018-06-11T07:47:56.141Z,37.82
2018-06-11T07:50:25.098Z,37.43
2018-06-11T07:52:54.063Z,35.87
2018-06-11T07:55:23.027Z,35.22
2018-06-11T07:57:52.045Z,34.73
2018-06-11T08:00:21.096Z,34.06
2018-06-11T08:02:50.057Z,33.60
2018-06-11T08:05:19.065Z,33.13
2018-06-11T08:07:48.155Z,33.16
2018-06-11T08:10:17.228Z,33.83
2018-06-11T08:12:46.316Z,34.40
2018-06-11T08:15:15.268Z,34.07
2018-06-11T08:17:44.221Z,33.70
2018-06-11T08:20:13.198Z,33.40
2018-06-11T08:22:42.153Z,33.46
2018-06-11T08:25:11.273Z,33.59
2018-06-11T08:27:40.297Z,33.59
2018-06-11T08:30:09.320Z,33.62
2018-06-11T08:32:38.359Z,33.67
2018-06-11T08:35:07.371Z,33.68
2018-06-11T08:37:36.388Z,33.81
2018-06-11T08:40:05.360Z,34.17
2018-06-11T08:42:34.393Z,34.36
2018-06-11T08:45:03.434Z,34.24
2018-06-11T08:47:32.394Z,34.15
2018-06-11T08:50:01.517Z,34.00
2018-06-11T08:52:30.544Z,33.91
2018-06-11T08:54:59.496Z,34.01
2018-06-11T08:57:28.500Z,33.75
2018-06-11T08:59:57.503Z,33.70
2018-06-11T09:02:26.601Z,33.60
2018-06-11T09:04:55.540Z,33.59
2018-06-11T09:07:24.559Z,33.52
2018-06-11T09:09:53.578Z,33.36
2018-06-11T09:12:22.540Z,33.42
2018-06-11T09:14:51.605Z,33.42
2018-06-11T09:17:20.784Z,33.68
2018-06-11T09:19:49.749Z,34.07
2018-06-11T09:22:18.732Z,34.30
2018-06-11T09:24:47.789Z,34.70
2018-06-11T09:27:16.856Z,35.09
2018-06-11T09:29:45.808Z,35.12
2018-06-11T09:32:14.772Z,34.94
2018-06-11T09:34:43.794Z,34.79
2018-06-11T09:37:12.784Z,34.36
2018-06-11T09:39:41.832Z,34.43
2018-06-11T09:42:10.905Z,34.25
2018-06-11T09:44:39.935Z,34.28
2018-06-11T09:47:08.904Z,34.90
2018-06-11T09:49:37.884Z,35.46
2018-06-11T09:52:06.925Z,35.79
2018-06-11T09:54:35.900Z,35.87
2018-06-11T09:57:04.866Z,35.75
2018-06-11T09:59:33.832Z,36.31
2018-06-11T10:02:02.865Z,36.94
2018-06-11T10:04:31.825Z,37.47
2018-06-11T10:07:00.778Z,37.41
2018-06-11T10:09:29.808Z,37.38
2018-06-11T10:11:58.896Z,37.86
2018-06-11T10:14:27.920Z,38.05
2018-06-11T10:16:56.900Z,38.24
2018-06-11T10:19:25.883Z,38.00
2018-06-11T10:21:54.944Z,37.96
2018-06-11T10:24:23.956Z,37.87
2018-06-11T10:26:52.911Z,37.77
2018-06-11T10:29:21.863Z,38.38
2018-06-11T10:31:50.844Z,38.73
2018-06-11T10:34:19.974Z,38.65
2018-06-11T10:36:48.985Z,39.13
2018-06-11T10:39:18.004Z,39.17
2018-06-11T10:41:47.041Z,38.49
2018-06-11T10:44:16.005Z,37.88
2018-06-11T10:46:45.013Z,37.76
2018-06-11T10:49:14.025Z,38.28
2018-06-11T10:51:43.057Z,38.50
2018-06-11T10:54:12.070Z,38.22
2018-06-11T10:56:41.093Z,38.05
2018-06-11T10:59:10.213Z,38.20
2018-06-11T11:01:39.225Z,38.65
2018-06-11T11:04:08.194Z,38.58
2018-06-11T11:06:37.157Z,38.81
2018-06-11T11:09:07.485Z,38.78
2018-06-11T11:11:36.505Z,38.94
2018-06-11T11:14:05.532Z,38.98
2018-06-11T11:16:34.520Z,39.40
2018-06-11T11:19:03.485Z,39.14
2018-06-11T11:21:32.513Z,38.34
2018-06-11T11:24:01.596Z,37.49
2018-06-11T11:26:30.602Z,37.45
2018-06-11T11:28:59.620Z,37.60
2018-06-11T11:31:28.723Z,37.88
2018-06-11T11:33:57.769Z,38.50
2018-06-11T11:36:26.833Z,38.83
2018-06-11T11:38:55.808Z,39.04
2018-06-11T11:41:24.767Z,40.01
2018-06-11T11:43:53.859Z,40.68
2018-06-11T11:46:22.882Z,41.03
2018-06-11T11:48:51.892Z,41.43
2018-06-11T11:51:20.844Z,41.11
2018-06-11T11:53:49.887Z,40.80
2018-06-11T11:56:18.916Z,40.88
2018-06-11T11:58:47.944Z,40.87
2018-06-11T12:01:17.026Z,41.37
2018-06-11T12:03:45.989Z,41.58
2018-06-11T12:06:15.006Z,41.06
2018-06-11T12:08:43.989Z,40.60
2018-06-11T12:11:13.037Z,40.78
2018-06-11T12:13:42.188Z,41.45
2018-06-11T12:16:11.269Z,41.69
2018-06-11T12:18:40.220Z,42.48
2018-06-11T12:21:09.345Z,41.67
2018-06-11T12:23:38.311Z,40.72
2018-06-11T12:26:07.330Z,40.24
2018-06-11T12:28:36.307Z,40.81
2018-06-11T12:31:05.318Z,40.58
2018-06-11T12:33:34.405Z,41.06
2018-06-11T12:36:03.484Z,41.57
2018-06-11T12:38:32.584Z,41.75
2018-06-11T12:41:01.561Z,42.19
2018-06-11T12:43:30.558Z,42.42
2018-06-11T12:45:59.521Z,41.86
2018-06-11T12:48:28.531Z,41.77
2018-06-11T12:50:57.540Z,41.96
2018-06-11T12:53:26.541Z,42.47
2018-06-11T12:55:55.490Z,42.82
2018-06-11T12:58:24.464Z,43.08
2018-06-11T13:00:53.424Z,43.69
2018-06-11T13:03:22.477Z,44.03
2018-06-11T13:05:51.483Z,44.32
2018-06-11T13:08:20.493Z,44.65
2018-06-11T13:10:49.506Z,44.75
2018-06-11T13:13:18.529Z,44.44
2018-06-11T13:15:47.567Z,44.14
2018-06-11T13:18:16.642Z,43.22
2018-06-11T13:20:45.625Z,42.52
2018-06-11T13:23:14.587Z,42.64
2018-06-11T13:25:43.536Z,42.66
2018-06-11T13:28:12.556Z,42.81
2018-06-11T13:30:41.594Z,42.74
2018-06-11T13:33:10.549Z,42.34
2018-06-11T13:35:39.628Z,42.07
2018-06-11T13:38:08.638Z,41.47
2018-06-11T13:40:37.668Z,41.25
2018-06-11T13:43:06.627Z,41.44
2018-06-11T13:45:35.702Z,41.12
2018-06-11T13:48:04.713Z,41.07
2018-06-11T13:50:33.806Z,41.44
2018-06-11T13:53:02.889Z,40.83
2018-06-11T13:55:31.937Z,38.91
2018-06-11T13:58:00.894Z,37.94
2018-06-11T14:00:29.908Z,36.91
2018-06-11T14:02:58.908Z,36.13
2018-06-11T14:05:27.921Z,35.52
2018-06-11T14:07:56.956Z,34.83
2018-06-11T14:10:25.994Z,34.40
2018-06-11T14:12:55.024Z,34.09
2018-06-11T14:15:24.016Z,33.74
2018-06-11T14:17:53.076Z,33.47
2018-06-11T14:20:22.174Z,33.15
2018-06-11T14:22:51.205Z,32.95
2018-06-11T14:25:20.230Z,32.78
2018-06-11T14:27:49.260Z,32.63
2018-06-11T14:30:18.353Z,32.52
2018-06-11T14:32:47.361Z,32.37
2018-06-11T14:35:16.424Z,32.26
2018-06-11T14:37:45.380Z,32.07
2018-06-11T14:40:14.358Z,32.01
2018-06-11T14:42:43.518Z,32.00
2018-06-11T14:45:12.637Z,31.97
2018-06-11T14:47:41.649Z,31.94
2018-06-11T14:50:10.798Z,31.89
2018-06-11T14:52:39.849Z,31.89
2018-06-11T14:55:09.020Z,31.82
2018-06-11T14:57:37.984Z,31.75
2018-06-11T15:00:07.051Z,31.70
2018-06-11T15:02:36.063Z,31.69
2018-06-11T15:05:05.133Z,31.64
2018-06-11T15:07:34.139Z,31.61
2018-06-11T15:10:03.179Z,31.53
2018-06-11T15:12:32.145Z,31.48
2018-06-11T15:15:01.187Z,31.40
2018-06-11T15:17:30.136Z,31.41
2018-06-11T15:19:59.196Z,31.31
2018-06-11T15:22:28.226Z,31.29
2018-06-11T15:24:57.232Z,31.23
2018-06-11T15:27:26.249Z,31.13
2018-06-11T15:29:55.227Z,31.03
2018-06-11T15:32:24.308Z,30.98
2018-06-11T15:34:53.322Z,30.95
2018-06-11T15:37:22.337Z,30.90
2018-06-11T15:39:51.291Z,30.88
2018-06-11T15:42:20.301Z,30.84
2018-06-11T15:44:49.382Z,30.81
2018-06-11T15:47:18.413Z,30.74
2018-06-11T15:49:47.478Z,30.69
2018-06-11T15:52:16.460Z,30.69
2018-06-11T15:54:45.400Z,30.68
2018-06-11T15:57:14.498Z,30.61
2018-06-11T15:59:43.500Z,30.61
2018-06-11T16:02:12.538Z,30.53
2018-06-11T16:04:41.608Z,30.44
2018-06-11T16:07:10.625Z,30.34
2018-06-11T16:09:39.620Z,30.32
2018-06-11T16:12:08.685Z,30.30
2018-06-11T16:14:37.681Z,30.17
2018-06-11T16:17:06.709Z,30.11
2018-06-11T16:19:35.745Z,30.08
2018-06-11T16:22:04.906Z,30.06
2018-06-11T16:24:33.887Z,29.97
2018-06-11T16:27:02.842Z,29.90
2018-06-11T16:29:31.909Z,29.87
2018-06-11T16:32:01.756Z,29.78
2018-06-11T16:34:30.833Z,29.69
2018-06-11T16:36:59.958Z,29.59
2018-06-11T16:39:28.953Z,29.53
2018-06-11T16:41:57.953Z,29.42
2018-06-11T16:44:27.209Z,29.35
2018-06-11T16:46:56.336Z,29.30
2018-06-11T16:49:25.363Z,29.28
2018-06-11T16:51:54.340Z,29.17
2018-06-11T16:54:23.350Z,29.08
2018-06-11T16:56:52.323Z,29.01
2018-06-11T16:59:21.403Z,28.94
2018-06-11T17:01:50.406Z,28.93
2018-06-11T17:04:19.436Z,28.86
2018-06-11T17:06:48.464Z,28.83
2018-06-11T17:09:17.461Z,28.77
2018-06-11T17:11:46.524Z,28.70
2018-06-11T17:14:15.534Z,28.61
2018-06-11T17:16:44.489Z,28.53
2018-06-11T17:19:13.499Z,28.41
2018-06-11T17:21:42.501Z,28.34
2018-06-11T17:24:11.723Z,28.26
2018-06-11T17:26:40.679Z,28.15
2018-06-11T17:29:09.628Z,28.05
2018-06-11T17:31:38.614Z,27.91
2018-06-11T17:34:07.757Z,27.84
2018-06-11T17:36:36.864Z,27.58
2018-06-11T17:39:07.880Z,27.66
2018-06-11T17:41:36.835Z,27.52
2018-06-11T17:44:05.795Z,27.36
2018-06-11T17:46:34.888Z,27.23
2018-06-11T17:49:03.900Z,27.11
2018-06-11T17:51:32.960Z,26.98
2018-06-11T17:54:01.900Z,26.81
2018-06-11T17:56:30.933Z,26.64
2018-06-11T17:58:59.942Z,26.51
2018-06-11T18:01:29.021Z,26.38
2018-06-11T18:03:57.974Z,26.23
2018-06-11T18:06:26.997Z,26.12
2018-06-11T18:08:55.945Z,25.98
2018-06-11T18:11:24.973Z,25.85
2018-06-11T18:13:55.377Z,25.73
2018-06-11T18:16:24.384Z,25.62
2018-06-11T18:18:53.363Z,25.54
2018-06-11T18:21:22.308Z,25.46
2018-06-11T18:23:51.253Z,25.37
2018-06-11T18:26:20.344Z,25.32
2018-06-11T18:28:49.337Z,25.25
2018-06-11T18:31:18.287Z,25.20
2018-06-11T18:33:47.306Z,25.22
2018-06-11T18:36:16.314Z,25.17
2018-06-11T18:38:45.385Z,25.13
2018-06-11T18:41:14.631Z,25.10
2018-06-11T18:43:43.605Z,25.06
2018-06-11T18:46:12.552Z,25.00
2018-06-11T18:48:41.608Z,24.96
2018-06-11T18:51:10.691Z,24.86
2018-06-11T18:53:39.765Z,24.74
2018-06-11T18:56:08.848Z,24.73
2018-06-11T18:58:37.776Z,24.72
2018-06-11T19:01:06.783Z,24.69
2018-06-11T19:03:35.865Z,24.69
2018-06-11T19:06:04.889Z,24.67
2018-06-11T19:08:33.908Z,24.64
2018-06-11T19:11:02.937Z,24.60
2018-06-11T19:13:31.888Z,24.57
2018-06-11T19:16:01.571Z,24.56
2018-06-11T19:18:30.669Z,24.56
2018-06-11T19:20:59.631Z,24.59
2018-06-11T19:23:28.590Z,24.62
2018-06-11T19:25:57.660Z,24.61
2018-06-11T19:28:26.728Z,24.55
2018-06-11T19:30:55.680Z,24.47
2018-06-11T19:33:24.797Z,24.52
2018-06-11T19:35:53.772Z,24.53
2018-06-11T19:38:22.754Z,24.45
2018-06-11T19:40:51.805Z,24.41
2018-06-11T19:43:20.874Z,24.40
2018-06-11T19:45:49.824Z,24.47
2018-06-11T19:48:18.932Z,24.42
2018-06-11T19:50:47.980Z,24.44
2018-06-11T19:53:16.985Z,24.50
2018-06-11T19:55:45.988Z,24.42
2018-06-11T19:58:14.988Z,24.29
2018-06-11T20:00:43.988Z,24.21
2018-06-11T20:03:13.048Z,24.10
2018-06-11T20:05:42.004Z,24.00
2018-06-11T20:08:10.947Z,23.95
2018-06-11T20:10:40.009Z,23.81
2018-06-11T20:13:09.077Z,23.70
2018-06-11T20:15:38.093Z,23.60
2018-06-11T20:18:07.209Z,23.52
2018-06-11T20:20:36.217Z,23.50
2018-06-11T20:23:05.225Z,23.37
2018-06-11T20:25:34.290Z,23.33
2018-06-11T20:28:03.576Z,23.25
2018-06-11T20:30:32.585Z,23.28
2018-06-11T20:33:01.648Z,23.26
2018-06-11T20:35:30.640Z,23.24
2018-06-11T20:37:59.890Z,23.21
2018-06-11T20:40:28.945Z,23.17
2018-06-11T20:42:57.960Z,23.21
2018-06-11T20:45:26.960Z,23.20
2018-06-11T20:47:56.008Z,23.12
2018-06-11T20:50:24.955Z,23.13
2018-06-11T20:52:53.964Z,23.11
2018-06-11T20:55:22.969Z,23.16
2018-06-11T20:57:52.023Z,23.13
2018-06-11T21:00:21.016Z,23.15
2018-06-11T21:02:50.064Z,23.16
2018-06-11T21:05:19.010Z,23.18
2018-06-11T21:07:48.000Z,23.16
2018-06-11T21:10:17.131Z,23.12
2018-06-11T21:12:46.233Z,23.04
2018-06-11T21:15:15.176Z,23.03
2018-06-11T21:17:44.233Z,22.98
2018-06-11T21:20:13.176Z,23.00
2018-06-11T21:22:42.124Z,23.04
2018-06-11T21:25:11.194Z,23.08
2018-06-11T21:27:40.203Z,23.13
2018-06-11T21:30:09.284Z,23.19
2018-06-11T21:32:38.299Z,23.32
2018-06-11T21:35:07.352Z,23.31
2018-06-11T21:37:36.359Z,23.26
2018-06-11T21:40:05.449Z,23.23
2018-06-11T21:42:34.453Z,23.21
2018-06-11T21:45:03.437Z,23.15
2018-06-11T21:47:32.508Z,23.03
2018-06-11T21:50:01.506Z,22.98
2018-06-11T21:52:30.483Z,22.93
2018-06-11T21:54:59.528Z,22.85
2018-06-11T21:57:28.568Z,22.85
2018-06-11T21:59:57.511Z,22.80
2018-06-11T22:02:26.565Z,22.76
2018-06-11T22:04:55.640Z,22.69
2018-06-11T22:07:24.595Z,22.68
2018-06-11T22:09:53.579Z,22.64
2018-06-11T22:12:22.566Z,22.56
2018-06-11T22:14:51.572Z,22.60
2018-06-11T22:17:20.632Z,22.55
2018-06-11T22:19:49.609Z,22.55
2018-06-11T22:22:18.616Z,22.62
2018-06-11T22:24:47.655Z,22.68
2018-06-11T22:27:16.600Z,22.58
2018-06-11T22:29:45.535Z,22.46
2018-06-11T22:32:14.609Z,22.41
2018-06-11T22:34:43.552Z,22.38
2018-06-11T22:37:12.540Z,22.39
2018-06-11T22:39:41.590Z,22.39
2018-06-11T22:42:10.588Z,22.36
2018-06-11T22:44:39.535Z,22.33
2018-06-11T22:47:08.627Z,22.32
2018-06-11T22:49:37.688Z,22.32
2018-06-11T22:52:06.744Z,22.31
2018-06-11T22:54:35.801Z,22.31
2018-06-11T22:57:04.745Z,22.31
2018-06-11T22:59:33.793Z,22.33
2018-06-11T23:02:02.856Z,22.28
2018-06-11T23:04:31.913Z,22.23
2018-06-11T23:07:00.961Z,22.32
2018-06-11T23:09:30.010Z,22.38
2018-06-11T23:11:59.001Z,22.37
2018-06-11T23:14:28.005Z,22.34
2018-06-11T23:16:57.057Z,22.33
2018-06-11T23:19:26.061Z,22.32
2018-06-11T23:21:54.993Z,22.26
2018-06-11T23:24:24.089Z,22.28
2018-06-11T23:26:53.092Z,22.26
2018-06-11T23:29:22.040Z,22.32
2018-06-11T23:31:51.104Z,22.35
2018-06-11T23:34:20.201Z,22.34
2018-06-11T23:36:49.168Z,22.33
2018-06-11T23:39:18.241Z,22.34
2018-06-11T23:41:47.246Z,22.37
2018-06-11T23:44:16.187Z,22.36
2018-06-11T23:46:45.200Z,22.33
2018-06-11T23:49:14.193Z,22.24
2018-06-11T23:51:43.130Z,22.22
2018-06-11T23:54:12.174Z,22.16
2018-06-11T23:56:41.107Z,22.22
2018-06-11T23:59:10.111Z,22.30
